sensor_id;sensor_type;location;lat;lon;timestamp;pressure;altitude;pressure_sealevel;temperature
10058;BMP180;5068;51.286;7.518;2022-12-11T00:00:38;98785.00;;;4.10
10058;BMP180;5068;51.286;7.518;2022-12-11T00:02:11;98800.00;;;4.10
10058;BMP180;5068;51.286;7.518;2022-12-11T00:03:45;98802.00;;;4.10
10058;BMP180;5068;51.286;7.518;2022-12-11T00:05:19;98806.00;;;4.10
10058;BMP180;5068;51.286;7.518;2022-12-11T00:06:52;98801.00;;;4.10
10058;BMP180;5068;51.286;7.518;2022-12-11T00:08:25;98796.00;;;4.10
10058;BMP180;5068;51.286;7.518;2022-12-11T00:09:59;98785.00;;;4.10
10058;BMP180;5068;51.286;7.518;2022-12-11T00:11:32;98792.00;;;4.10
10058;BMP180;5068;51.286;7.518;2022-12-11T00:13:04;98803.00;;;4.10
10058;BMP180;5068;51.286;7.518;2022-12-11T00:14:38;98806.00;;;4.10
10058;BMP180;5068;51.286;7.518;2022-12-11T00:16:11;98792.00;;;4.10
10058;BMP180;5068;51.286;7.518;2022-12-11T00:17:44;98798.00;;;4.10
10058;BMP180;5068;51.286;7.518;2022-12-11T00:19:18;98787.00;;;4.20
10058;BMP180;5068;51.286;7.518;2022-12-11T00:20:51;98793.00;;;4.20
10058;BMP180;5068;51.286;7.518;2022-12-11T00:22:24;98798.00;;;4.20
10058;BMP180;5068;51.286;7.518;2022-12-11T00:23:57;98792.00;;;4.20
10058;BMP180;5068;51.286;7.518;2022-12-11T00:25:31;98787.00;;;4.20
10058;BMP180;5068;51.286;7.518;2022-12-11T00:27:03;98800.00;;;4.20
10058;BMP180;5068;51.286;7.518;2022-12-11T00:28:37;98797.00;;;4.20
10058;BMP180;5068;51.286;7.518;2022-12-11T00:30:11;98798.00;;;4.20
10058;BMP180;5068;51.286;7.518;2022-12-11T00:31:44;98788.00;;;4.20
10058;BMP180;5068;51.286;7.518;2022-12-11T00:33:17;98793.00;;;4.20
10058;BMP180;5068;51.286;7.518;2022-12-11T00:34:50;98793.00;;;4.20
10058;BMP180;5068;51.286;7.518;2022-12-11T00:36:26;98792.00;;;4.20
10058;BMP180;5068;51.286;7.518;2022-12-11T00:37:59;98795.00;;;4.30
10058;BMP180;5068;51.286;7.518;2022-12-11T00:39:32;98805.00;;;4.30
10058;BMP180;5068;51.286;7.518;2022-12-11T00:41:05;98800.00;;;4.20
10058;BMP180;5068;51.286;7.518;2022-12-11T00:42:37;98796.00;;;4.20
10058;BMP180;5068;51.286;7.518;2022-12-11T00:44:11;98811.00;;;4.20
10058;BMP180;5068;51.286;7.518;2022-12-11T00:45:46;98807.00;;;4.20
10058;BMP180;5068;51.286;7.518;2022-12-11T00:47:19;98807.00;;;4.30
10058;BMP180;5068;51.286;7.518;2022-12-11T00:48:52;98800.00;;;4.30
10058;BMP180;5068;51.286;7.518;2022-12-11T00:50:27;98787.00;;;4.30
10058;BMP180;5068;51.286;7.518;2022-12-11T00:52:00;98799.00;;;4.30
10058;BMP180;5068;51.286;7.518;2022-12-11T00:53:33;98803.00;;;4.30
10058;BMP180;5068;51.286;7.518;2022-12-11T00:55:08;98796.00;;;4.30
10058;BMP180;5068;51.286;7.518;2022-12-11T00:56:42;98798.00;;;4.30
10058;BMP180;5068;51.286;7.518;2022-12-11T00:58:16;98801.00;;;4.30
10058;BMP180;5068;51.286;7.518;2022-12-11T00:59:49;98794.00;;;4.30
10058;BMP180;5068;51.286;7.518;2022-12-11T01:01:24;98798.00;;;4.30
10058;BMP180;5068;51.286;7.518;2022-12-11T01:02:57;98794.00;;;4.30
10058;BMP180;5068;51.286;7.518;2022-12-11T01:04:34;98788.00;;;4.30
10058;BMP180;5068;51.286;7.518;2022-12-11T01:06:13;98786.00;;;4.30
10058;BMP180;5068;51.286;7.518;2022-12-11T01:07:47;98794.00;;;4.20
10058;BMP180;5068;51.286;7.518;2022-12-11T01:09:21;98793.00;;;4.20
10058;BMP180;5068;51.286;7.518;2022-12-11T01:11:14;98797.00;;;4.20
10058;BMP180;5068;51.286;7.518;2022-12-11T01:12:48;98794.00;;;4.20
10058;BMP180;5068;51.286;7.518;2022-12-11T01:14:20;98792.00;;;4.20
10058;BMP180;5068;51.286;7.518;2022-12-11T01:15:54;98782.00;;;4.20
10058;BMP180;5068;51.286;7.518;2022-12-11T01:17:27;98793.00;;;4.20
10058;BMP180;5068;51.286;7.518;2022-12-11T01:19:00;98797.00;;;4.20
10058;BMP180;5068;51.286;7.518;2022-12-11T01:20:34;98795.00;;;4.20
10058;BMP180;5068;51.286;7.518;2022-12-11T01:22:10;98783.00;;;4.20
10058;BMP180;5068;51.286;7.518;2022-12-11T01:23:43;98795.00;;;4.20
10058;BMP180;5068;51.286;7.518;2022-12-11T01:25:16;98783.00;;;4.20
10058;BMP180;5068;51.286;7.518;2022-12-11T01:26:49;98780.00;;;4.20
10058;BMP180;5068;51.286;7.518;2022-12-11T01:28:22;98786.00;;;4.20
10058;BMP180;5068;51.286;7.518;2022-12-11T01:29:55;98787.00;;;4.20
10058;BMP180;5068;51.286;7.518;2022-12-11T01:31:28;98786.00;;;4.20
10058;BMP180;5068;51.286;7.518;2022-12-11T01:33:03;98788.00;;;4.20
10058;BMP180;5068;51.286;7.518;2022-12-11T01:34:37;98779.00;;;4.20
10058;BMP180;5068;51.286;7.518;2022-12-11T01:36:13;98784.00;;;4.20
10058;BMP180;5068;51.286;7.518;2022-12-11T01:37:48;98797.00;;;4.20
10058;BMP180;5068;51.286;7.518;2022-12-11T01:39:20;98797.00;;;4.20
10058;BMP180;5068;51.286;7.518;2022-12-11T01:40:54;98782.00;;;4.20
10058;BMP180;5068;51.286;7.518;2022-12-11T01:42:27;98794.00;;;4.10
10058;BMP180;5068;51.286;7.518;2022-12-11T01:44:04;98794.00;;;4.10
10058;BMP180;5068;51.286;7.518;2022-12-11T01:45:39;98794.00;;;4.10
10058;BMP180;5068;51.286;7.518;2022-12-11T01:47:15;98786.00;;;4.10
10058;BMP180;5068;51.286;7.518;2022-12-11T01:48:48;98788.00;;;4.10
10058;BMP180;5068;51.286;7.518;2022-12-11T01:50:21;98781.00;;;4.00
10058;BMP180;5068;51.286;7.518;2022-12-11T01:51:59;98788.00;;;4.00
10058;BMP180;5068;51.286;7.518;2022-12-11T01:53:39;98787.00;;;4.10
10058;BMP180;5068;51.286;7.518;2022-12-11T01:55:13;98793.00;;;4.10
10058;BMP180;5068;51.286;7.518;2022-12-11T01:56:49;98788.00;;;4.10
10058;BMP180;5068;51.286;7.518;2022-12-11T01:58:28;98793.00;;;4.10
10058;BMP180;5068;51.286;7.518;2022-12-11T02:00:04;98786.00;;;4.10
10058;BMP180;5068;51.286;7.518;2022-12-11T02:02:03;98785.00;;;4.20
10058;BMP180;5068;51.286;7.518;2022-12-11T02:03:38;98798.00;;;4.20
10058;BMP180;5068;51.286;7.518;2022-12-11T02:05:11;98778.00;;;4.20
10058;BMP180;5068;51.286;7.518;2022-12-11T02:06:48;98792.00;;;4.20
10058;BMP180;5068;51.286;7.518;2022-12-11T02:08:21;98795.00;;;4.20
10058;BMP180;5068;51.286;7.518;2022-12-11T02:09:55;98781.00;;;4.20
10058;BMP180;5068;51.286;7.518;2022-12-11T02:11:39;98788.00;;;4.20
10058;BMP180;5068;51.286;7.518;2022-12-11T02:13:25;98784.00;;;4.20
10058;BMP180;5068;51.286;7.518;2022-12-11T02:15:11;98783.00;;;4.20
10058;BMP180;5068;51.286;7.518;2022-12-11T02:16:55;98780.00;;;4.20
10058;BMP180;5068;51.286;7.518;2022-12-11T02:18:38;98782.00;;;4.20
10058;BMP180;5068;51.286;7.518;2022-12-11T02:20:21;98779.00;;;4.20
10058;BMP180;5068;51.286;7.518;2022-12-11T02:21:56;98776.00;;;4.30
10058;BMP180;5068;51.286;7.518;2022-12-11T02:24:03;98780.00;;;4.30
10058;BMP180;5068;51.286;7.518;2022-12-11T02:25:51;98778.00;;;4.30
10058;BMP180;5068;51.286;7.518;2022-12-11T02:27:35;98772.00;;;4.30
10058;BMP180;5068;51.286;7.518;2022-12-11T02:29:16;98779.00;;;4.30
10058;BMP180;5068;51.286;7.518;2022-12-11T02:30:57;98773.00;;;4.30
10058;BMP180;5068;51.286;7.518;2022-12-11T02:32:38;98776.00;;;4.30
10058;BMP180;5068;51.286;7.518;2022-12-11T02:34:21;98772.00;;;4.30
10058;BMP180;5068;51.286;7.518;2022-12-11T02:35:56;98781.00;;;4.30
10058;BMP180;5068;51.286;7.518;2022-12-11T02:37:32;98770.00;;;4.30
10058;BMP180;5068;51.286;7.518;2022-12-11T02:39:10;98770.00;;;4.30
10058;BMP180;5068;51.286;7.518;2022-12-11T02:40:48;98772.00;;;4.30
10058;BMP180;5068;51.286;7.518;2022-12-11T02:42:29;98775.00;;;4.30
10058;BMP180;5068;51.286;7.518;2022-12-11T02:44:04;98786.00;;;4.30
10058;BMP180;5068;51.286;7.518;2022-12-11T02:45:41;98773.00;;;4.20
10058;BMP180;5068;51.286;7.518;2022-12-11T02:47:18;98778.00;;;4.20
10058;BMP180;5068;51.286;7.518;2022-12-11T02:48:54;98773.00;;;4.20
10058;BMP180;5068;51.286;7.518;2022-12-11T02:50:29;98781.00;;;4.20
10058;BMP180;5068;51.286;7.518;2022-12-11T02:52:05;98778.00;;;4.20
10058;BMP180;5068;51.286;7.518;2022-12-11T02:53:41;98777.00;;;4.20
10058;BMP180;5068;51.286;7.518;2022-12-11T02:55:16;98770.00;;;4.20
10058;BMP180;5068;51.286;7.518;2022-12-11T02:56:54;98767.00;;;4.20
10058;BMP180;5068;51.286;7.518;2022-12-11T02:58:31;98760.00;;;4.20
10058;BMP180;5068;51.286;7.518;2022-12-11T03:00:08;98763.00;;;4.20
10058;BMP180;5068;51.286;7.518;2022-12-11T03:01:44;98772.00;;;4.20
10058;BMP180;5068;51.286;7.518;2022-12-11T03:03:18;98766.00;;;4.20
10058;BMP180;5068;51.286;7.518;2022-12-11T03:04:51;98760.00;;;4.20
10058;BMP180;5068;51.286;7.518;2022-12-11T03:06:31;98763.00;;;4.20
10058;BMP180;5068;51.286;7.518;2022-12-11T03:08:06;98751.00;;;4.30
10058;BMP180;5068;51.286;7.518;2022-12-11T03:09:42;98760.00;;;4.30
10058;BMP180;5068;51.286;7.518;2022-12-11T03:11:15;98752.00;;;4.30
10058;BMP180;5068;51.286;7.518;2022-12-11T03:12:52;98746.00;;;4.30
10058;BMP180;5068;51.286;7.518;2022-12-11T03:14:27;98755.00;;;4.30
10058;BMP180;5068;51.286;7.518;2022-12-11T03:16:09;98737.00;;;4.30
10058;BMP180;5068;51.286;7.518;2022-12-11T03:18:00;98751.00;;;4.30
10058;BMP180;5068;51.286;7.518;2022-12-11T03:19:40;98745.00;;;4.30
10058;BMP180;5068;51.286;7.518;2022-12-11T03:21:23;98751.00;;;4.30
10058;BMP180;5068;51.286;7.518;2022-12-11T03:23:08;98752.00;;;4.30
10058;BMP180;5068;51.286;7.518;2022-12-11T03:24:50;98753.00;;;4.30
10058;BMP180;5068;51.286;7.518;2022-12-11T03:26:25;98753.00;;;4.30
10058;BMP180;5068;51.286;7.518;2022-12-11T03:28:09;98751.00;;;4.30
10058;BMP180;5068;51.286;7.518;2022-12-11T03:29:50;98750.00;;;4.30
10058;BMP180;5068;51.286;7.518;2022-12-11T03:31:31;98741.00;;;4.30
10058;BMP180;5068;51.286;7.518;2022-12-11T03:33:13;98743.00;;;4.30
10058;BMP180;5068;51.286;7.518;2022-12-11T03:34:53;98742.00;;;4.30
10058;BMP180;5068;51.286;7.518;2022-12-11T03:36:34;98744.00;;;4.30
10058;BMP180;5068;51.286;7.518;2022-12-11T03:38:15;98744.00;;;4.30
10058;BMP180;5068;51.286;7.518;2022-12-11T03:39:55;98752.00;;;4.30
10058;BMP180;5068;51.286;7.518;2022-12-11T03:41:32;98746.00;;;4.30
10058;BMP180;5068;51.286;7.518;2022-12-11T03:43:07;98746.00;;;4.30
10058;BMP180;5068;51.286;7.518;2022-12-11T03:44:43;98747.00;;;4.30
10058;BMP180;5068;51.286;7.518;2022-12-11T03:46:23;98748.00;;;4.40
10058;BMP180;5068;51.286;7.518;2022-12-11T03:48:00;98744.00;;;4.40
10058;BMP180;5068;51.286;7.518;2022-12-11T03:49:40;98749.00;;;4.40
10058;BMP180;5068;51.286;7.518;2022-12-11T03:51:16;98746.00;;;4.40
10058;BMP180;5068;51.286;7.518;2022-12-11T03:52:50;98743.00;;;4.40
10058;BMP180;5068;51.286;7.518;2022-12-11T03:54:25;98742.00;;;4.50
10058;BMP180;5068;51.286;7.518;2022-12-11T03:56:01;98741.00;;;4.50
10058;BMP180;5068;51.286;7.518;2022-12-11T03:57:36;98732.00;;;4.50
10058;BMP180;5068;51.286;7.518;2022-12-11T03:59:09;98738.00;;;4.50
10058;BMP180;5068;51.286;7.518;2022-12-11T04:00:42;98727.00;;;4.50
10058;BMP180;5068;51.286;7.518;2022-12-11T04:02:15;98735.00;;;4.60
10058;BMP180;5068;51.286;7.518;2022-12-11T04:03:47;98734.00;;;4.50
10058;BMP180;5068;51.286;7.518;2022-12-11T04:05:22;98739.00;;;4.60
10058;BMP180;5068;51.286;7.518;2022-12-11T04:06:54;98749.00;;;4.50
10058;BMP180;5068;51.286;7.518;2022-12-11T04:08:27;98745.00;;;4.60
10058;BMP180;5068;51.286;7.518;2022-12-11T04:10:03;98749.00;;;4.60
10058;BMP180;5068;51.286;7.518;2022-12-11T04:11:36;98739.00;;;4.50
10058;BMP180;5068;51.286;7.518;2022-12-11T04:13:09;98742.00;;;4.50
10058;BMP180;5068;51.286;7.518;2022-12-11T04:14:43;98739.00;;;4.50
10058;BMP180;5068;51.286;7.518;2022-12-11T04:16:35;98748.00;;;4.50
10058;BMP180;5068;51.286;7.518;2022-12-11T04:18:09;98739.00;;;4.50
10058;BMP180;5068;51.286;7.518;2022-12-11T04:19:56;98752.00;;;4.40
10058;BMP180;5068;51.286;7.518;2022-12-11T04:21:49;98740.00;;;4.40
10058;BMP180;5068;51.286;7.518;2022-12-11T04:23:40;98743.00;;;4.40
10058;BMP180;5068;51.286;7.518;2022-12-11T04:25:31;98749.00;;;4.30
10058;BMP180;5068;51.286;7.518;2022-12-11T04:27:07;98748.00;;;4.30
10058;BMP180;5068;51.286;7.518;2022-12-11T04:28:43;98748.00;;;4.30
10058;BMP180;5068;51.286;7.518;2022-12-11T04:30:19;98746.00;;;4.30
10058;BMP180;5068;51.286;7.518;2022-12-11T04:31:53;98744.00;;;4.30
10058;BMP180;5068;51.286;7.518;2022-12-11T04:33:26;98741.00;;;4.30
10058;BMP180;5068;51.286;7.518;2022-12-11T04:35:00;98739.00;;;4.40
10058;BMP180;5068;51.286;7.518;2022-12-11T04:36:32;98748.00;;;4.40
10058;BMP180;5068;51.286;7.518;2022-12-11T04:38:07;98742.00;;;4.40
10058;BMP180;5068;51.286;7.518;2022-12-11T04:39:40;98748.00;;;4.40
10058;BMP180;5068;51.286;7.518;2022-12-11T04:41:14;98745.00;;;4.40
10058;BMP180;5068;51.286;7.518;2022-12-11T04:42:47;98748.00;;;4.40
10058;BMP180;5068;51.286;7.518;2022-12-11T04:44:20;98740.00;;;4.40
10058;BMP180;5068;51.286;7.518;2022-12-11T04:46:01;98732.00;;;4.40
10058;BMP180;5068;51.286;7.518;2022-12-11T04:47:36;98736.00;;;4.40
10058;BMP180;5068;51.286;7.518;2022-12-11T04:49:09;98743.00;;;4.40
10058;BMP180;5068;51.286;7.518;2022-12-11T04:50:44;98732.00;;;4.40
10058;BMP180;5068;51.286;7.518;2022-12-11T04:52:17;98728.00;;;4.40
10058;BMP180;5068;51.286;7.518;2022-12-11T04:53:51;98741.00;;;4.40
10058;BMP180;5068;51.286;7.518;2022-12-11T04:55:25;98733.00;;;4.40
10058;BMP180;5068;51.286;7.518;2022-12-11T04:56:58;98739.00;;;4.40
10058;BMP180;5068;51.286;7.518;2022-12-11T04:58:31;98739.00;;;4.40
10058;BMP180;5068;51.286;7.518;2022-12-11T05:00:09;98737.00;;;4.30
10058;BMP180;5068;51.286;7.518;2022-12-11T05:01:45;98738.00;;;4.30
10058;BMP180;5068;51.286;7.518;2022-12-11T05:03:19;98738.00;;;4.30
10058;BMP180;5068;51.286;7.518;2022-12-11T05:04:53;98733.00;;;4.30
10058;BMP180;5068;51.286;7.518;2022-12-11T05:06:26;98748.00;;;4.30
10058;BMP180;5068;51.286;7.518;2022-12-11T05:07:59;98743.00;;;4.30
10058;BMP180;5068;51.286;7.518;2022-12-11T05:09:33;98732.00;;;4.30
10058;BMP180;5068;51.286;7.518;2022-12-11T05:11:09;98736.00;;;4.30
10058;BMP180;5068;51.286;7.518;2022-12-11T05:12:42;98736.00;;;4.40
10058;BMP180;5068;51.286;7.518;2022-12-11T05:14:16;98734.00;;;4.30
10058;BMP180;5068;51.286;7.518;2022-12-11T05:15:49;98734.00;;;4.30
10058;BMP180;5068;51.286;7.518;2022-12-11T05:17:23;98727.00;;;4.30
10058;BMP180;5068;51.286;7.518;2022-12-11T05:18:56;98729.00;;;4.30
10058;BMP180;5068;51.286;7.518;2022-12-11T05:20:28;98728.00;;;4.30
10058;BMP180;5068;51.286;7.518;2022-12-11T05:22:01;98729.00;;;4.30
10058;BMP180;5068;51.286;7.518;2022-12-11T05:23:35;98735.00;;;4.30
10058;BMP180;5068;51.286;7.518;2022-12-11T05:25:10;98726.00;;;4.40
10058;BMP180;5068;51.286;7.518;2022-12-11T05:26:44;98731.00;;;4.40
10058;BMP180;5068;51.286;7.518;2022-12-11T05:28:16;98728.00;;;4.40
10058;BMP180;5068;51.286;7.518;2022-12-11T05:29:50;98732.00;;;4.40
10058;BMP180;5068;51.286;7.518;2022-12-11T05:31:30;98728.00;;;4.40
10058;BMP180;5068;51.286;7.518;2022-12-11T05:33:03;98724.00;;;4.40
10058;BMP180;5068;51.286;7.518;2022-12-11T05:34:37;98722.00;;;4.40
10058;BMP180;5068;51.286;7.518;2022-12-11T05:36:16;98719.00;;;4.40
10058;BMP180;5068;51.286;7.518;2022-12-11T05:37:49;98723.00;;;4.40
10058;BMP180;5068;51.286;7.518;2022-12-11T05:39:25;98721.00;;;4.40
10058;BMP180;5068;51.286;7.518;2022-12-11T05:41:03;98721.00;;;4.40
10058;BMP180;5068;51.286;7.518;2022-12-11T05:42:37;98725.00;;;4.40
10058;BMP180;5068;51.286;7.518;2022-12-11T05:44:11;98715.00;;;4.40
10058;BMP180;5068;51.286;7.518;2022-12-11T05:45:45;98723.00;;;4.40
10058;BMP180;5068;51.286;7.518;2022-12-11T05:47:18;98729.00;;;4.50
10058;BMP180;5068;51.286;7.518;2022-12-11T05:48:54;98723.00;;;4.50
10058;BMP180;5068;51.286;7.518;2022-12-11T05:50:28;98724.00;;;4.50
10058;BMP180;5068;51.286;7.518;2022-12-11T05:52:01;98719.00;;;4.50
10058;BMP180;5068;51.286;7.518;2022-12-11T05:53:35;98711.00;;;4.50
10058;BMP180;5068;51.286;7.518;2022-12-11T05:55:09;98714.00;;;4.50
10058;BMP180;5068;51.286;7.518;2022-12-11T05:56:45;98718.00;;;4.60
10058;BMP180;5068;51.286;7.518;2022-12-11T05:58:21;98720.00;;;4.60
10058;BMP180;5068;51.286;7.518;2022-12-11T05:59:53;98716.00;;;4.60
10058;BMP180;5068;51.286;7.518;2022-12-11T06:01:30;98722.00;;;4.60
10058;BMP180;5068;51.286;7.518;2022-12-11T06:03:02;98723.00;;;4.60
10058;BMP180;5068;51.286;7.518;2022-12-11T06:04:36;98715.00;;;4.60
10058;BMP180;5068;51.286;7.518;2022-12-11T06:06:09;98717.00;;;4.60
10058;BMP180;5068;51.286;7.518;2022-12-11T06:07:42;98717.00;;;4.60
10058;BMP180;5068;51.286;7.518;2022-12-11T06:09:16;98715.00;;;4.60
10058;BMP180;5068;51.286;7.518;2022-12-11T06:10:50;98718.00;;;4.70
10058;BMP180;5068;51.286;7.518;2022-12-11T06:12:24;98713.00;;;4.70
10058;BMP180;5068;51.286;7.518;2022-12-11T06:13:57;98714.00;;;4.70
10058;BMP180;5068;51.286;7.518;2022-12-11T06:15:31;98708.00;;;4.70
10058;BMP180;5068;51.286;7.518;2022-12-11T06:17:04;98702.00;;;4.70
10058;BMP180;5068;51.286;7.518;2022-12-11T06:18:40;98707.00;;;4.70
10058;BMP180;5068;51.286;7.518;2022-12-11T06:20:14;98703.00;;;4.70
10058;BMP180;5068;51.286;7.518;2022-12-11T06:21:47;98699.00;;;4.70
10058;BMP180;5068;51.286;7.518;2022-12-11T06:23:20;98703.00;;;4.80
10058;BMP180;5068;51.286;7.518;2022-12-11T06:24:53;98697.00;;;4.80
10058;BMP180;5068;51.286;7.518;2022-12-11T06:26:27;98705.00;;;4.80
10058;BMP180;5068;51.286;7.518;2022-12-11T06:28:02;98700.00;;;4.80
10058;BMP180;5068;51.286;7.518;2022-12-11T06:29:35;98703.00;;;4.80
10058;BMP180;5068;51.286;7.518;2022-12-11T06:31:09;98699.00;;;4.80
10058;BMP180;5068;51.286;7.518;2022-12-11T06:32:42;98709.00;;;4.80
10058;BMP180;5068;51.286;7.518;2022-12-11T06:34:16;98705.00;;;4.80
10058;BMP180;5068;51.286;7.518;2022-12-11T06:35:49;98708.00;;;4.80
10058;BMP180;5068;51.286;7.518;2022-12-11T06:37:21;98699.00;;;4.80
10058;BMP180;5068;51.286;7.518;2022-12-11T06:38:55;98710.00;;;4.80
10058;BMP180;5068;51.286;7.518;2022-12-11T06:40:28;98703.00;;;4.80
10058;BMP180;5068;51.286;7.518;2022-12-11T06:42:01;98706.00;;;4.80
10058;BMP180;5068;51.286;7.518;2022-12-11T06:43:38;98707.00;;;4.80
10058;BMP180;5068;51.286;7.518;2022-12-11T06:45:12;98711.00;;;4.80
10058;BMP180;5068;51.286;7.518;2022-12-11T06:46:44;98718.00;;;4.80
10058;BMP180;5068;51.286;7.518;2022-12-11T06:48:19;98706.00;;;4.70
10058;BMP180;5068;51.286;7.518;2022-12-11T06:49:53;98714.00;;;4.70
10058;BMP180;5068;51.286;7.518;2022-12-11T06:51:26;98715.00;;;4.80
10058;BMP180;5068;51.286;7.518;2022-12-11T06:52:59;98710.00;;;4.80
10058;BMP180;5068;51.286;7.518;2022-12-11T06:54:33;98717.00;;;4.80
10058;BMP180;5068;51.286;7.518;2022-12-11T06:56:09;98725.00;;;4.80
10058;BMP180;5068;51.286;7.518;2022-12-11T06:57:43;98719.00;;;4.80
10058;BMP180;5068;51.286;7.518;2022-12-11T06:59:18;98719.00;;;4.80
10058;BMP180;5068;51.286;7.518;2022-12-11T07:00:51;98714.00;;;4.70
10058;BMP180;5068;51.286;7.518;2022-12-11T07:02:24;98719.00;;;4.70
10058;BMP180;5068;51.286;7.518;2022-12-11T07:03:59;98703.00;;;4.70
10058;BMP180;5068;51.286;7.518;2022-12-11T07:05:32;98711.00;;;4.70
10058;BMP180;5068;51.286;7.518;2022-12-11T07:07:06;98715.00;;;4.70
10058;BMP180;5068;51.286;7.518;2022-12-11T07:08:40;98720.00;;;4.70
10058;BMP180;5068;51.286;7.518;2022-12-11T07:10:14;98712.00;;;4.70
10058;BMP180;5068;51.286;7.518;2022-12-11T07:11:48;98710.00;;;4.70
10058;BMP180;5068;51.286;7.518;2022-12-11T07:13:22;98720.00;;;4.70
10058;BMP180;5068;51.286;7.518;2022-12-11T07:14:56;98721.00;;;4.70
10058;BMP180;5068;51.286;7.518;2022-12-11T07:16:29;98716.00;;;4.70
10058;BMP180;5068;51.286;7.518;2022-12-11T07:18:03;98724.00;;;4.70
10058;BMP180;5068;51.286;7.518;2022-12-11T07:19:36;98715.00;;;4.70
10058;BMP180;5068;51.286;7.518;2022-12-11T07:21:13;98728.00;;;4.70
10058;BMP180;5068;51.286;7.518;2022-12-11T07:22:46;98720.00;;;4.70
10058;BMP180;5068;51.286;7.518;2022-12-11T07:24:19;98728.00;;;4.70
10058;BMP180;5068;51.286;7.518;2022-12-11T07:25:53;98726.00;;;4.70
10058;BMP180;5068;51.286;7.518;2022-12-11T07:27:27;98721.00;;;4.70
10058;BMP180;5068;51.286;7.518;2022-12-11T07:29:01;98714.00;;;4.70
10058;BMP180;5068;51.286;7.518;2022-12-11T07:30:37;98723.00;;;4.70
10058;BMP180;5068;51.286;7.518;2022-12-11T07:32:10;98724.00;;;4.70
10058;BMP180;5068;51.286;7.518;2022-12-11T07:33:44;98722.00;;;4.70
10058;BMP180;5068;51.286;7.518;2022-12-11T07:35:18;98722.00;;;4.70
10058;BMP180;5068;51.286;7.518;2022-12-11T07:36:51;98721.00;;;4.70
10058;BMP180;5068;51.286;7.518;2022-12-11T07:38:24;98724.00;;;4.70
10058;BMP180;5068;51.286;7.518;2022-12-11T07:39:58;98719.00;;;4.80
10058;BMP180;5068;51.286;7.518;2022-12-11T07:41:31;98722.00;;;4.80
10058;BMP180;5068;51.286;7.518;2022-12-11T07:43:04;98713.00;;;4.80
10058;BMP180;5068;51.286;7.518;2022-12-11T07:44:38;98713.00;;;4.80
10058;BMP180;5068;51.286;7.518;2022-12-11T07:46:16;98717.00;;;4.80
10058;BMP180;5068;51.286;7.518;2022-12-11T07:47:49;98718.00;;;4.80
10058;BMP180;5068;51.286;7.518;2022-12-11T07:49:23;98717.00;;;4.70
10058;BMP180;5068;51.286;7.518;2022-12-11T07:51:07;98716.00;;;4.70
10058;BMP180;5068;51.286;7.518;2022-12-11T07:52:41;98711.00;;;4.70
10058;BMP180;5068;51.286;7.518;2022-12-11T07:54:15;98710.00;;;4.70
10058;BMP180;5068;51.286;7.518;2022-12-11T07:55:48;98723.00;;;4.80
10058;BMP180;5068;51.286;7.518;2022-12-11T07:57:21;98719.00;;;4.80
10058;BMP180;5068;51.286;7.518;2022-12-11T07:58:55;98724.00;;;4.80
10058;BMP180;5068;51.286;7.518;2022-12-11T08:00:28;98729.00;;;4.80
10058;BMP180;5068;51.286;7.518;2022-12-11T08:02:04;98734.00;;;4.80
10058;BMP180;5068;51.286;7.518;2022-12-11T08:03:37;98733.00;;;4.80
10058;BMP180;5068;51.286;7.518;2022-12-11T08:05:11;98728.00;;;4.70
10058;BMP180;5068;51.286;7.518;2022-12-11T08:06:45;98740.00;;;4.70
10058;BMP180;5068;51.286;7.518;2022-12-11T08:08:18;98722.00;;;4.70
10058;BMP180;5068;51.286;7.518;2022-12-11T08:09:52;98738.00;;;4.70
10058;BMP180;5068;51.286;7.518;2022-12-11T08:11:26;98742.00;;;4.70
10058;BMP180;5068;51.286;7.518;2022-12-11T08:12:59;98735.00;;;4.70
10058;BMP180;5068;51.286;7.518;2022-12-11T08:14:33;98741.00;;;4.60
10058;BMP180;5068;51.286;7.518;2022-12-11T08:16:09;98742.00;;;4.60
10058;BMP180;5068;51.286;7.518;2022-12-11T08:17:45;98740.00;;;4.60
10058;BMP180;5068;51.286;7.518;2022-12-11T08:19:18;98738.00;;;4.60
10058;BMP180;5068;51.286;7.518;2022-12-11T08:20:51;98734.00;;;4.60
10058;BMP180;5068;51.286;7.518;2022-12-11T08:22:25;98736.00;;;4.60
10058;BMP180;5068;51.286;7.518;2022-12-11T08:23:58;98732.00;;;4.50
10058;BMP180;5068;51.286;7.518;2022-12-11T08:25:31;98731.00;;;4.50
10058;BMP180;5068;51.286;7.518;2022-12-11T08:27:04;98731.00;;;4.50
10058;BMP180;5068;51.286;7.518;2022-12-11T08:28:38;98738.00;;;4.50
10058;BMP180;5068;51.286;7.518;2022-12-11T08:30:12;98737.00;;;4.40
10058;BMP180;5068;51.286;7.518;2022-12-11T08:31:45;98734.00;;;4.40
10058;BMP180;5068;51.286;7.518;2022-12-11T08:33:20;98737.00;;;4.40
10058;BMP180;5068;51.286;7.518;2022-12-11T08:34:53;98737.00;;;4.40
10058;BMP180;5068;51.286;7.518;2022-12-11T08:36:27;98731.00;;;4.40
10058;BMP180;5068;51.286;7.518;2022-12-11T08:38:00;98743.00;;;4.40
10058;BMP180;5068;51.286;7.518;2022-12-11T08:39:34;98738.00;;;4.40
10058;BMP180;5068;51.286;7.518;2022-12-11T08:41:09;98744.00;;;4.40
10058;BMP180;5068;51.286;7.518;2022-12-11T08:42:43;98738.00;;;4.40
10058;BMP180;5068;51.286;7.518;2022-12-11T08:44:16;98739.00;;;4.40
10058;BMP180;5068;51.286;7.518;2022-12-11T08:45:50;98734.00;;;4.40
10058;BMP180;5068;51.286;7.518;2022-12-11T08:47:24;98724.00;;;4.40
10058;BMP180;5068;51.286;7.518;2022-12-11T08:48:59;98733.00;;;4.40
10058;BMP180;5068;51.286;7.518;2022-12-11T08:50:32;98730.00;;;4.50
10058;BMP180;5068;51.286;7.518;2022-12-11T08:52:05;98729.00;;;4.50
10058;BMP180;5068;51.286;7.518;2022-12-11T08:53:39;98725.00;;;4.50
10058;BMP180;5068;51.286;7.518;2022-12-11T08:55:13;98726.00;;;4.50
10058;BMP180;5068;51.286;7.518;2022-12-11T08:56:46;98731.00;;;4.50
10058;BMP180;5068;51.286;7.518;2022-12-11T08:58:28;98726.00;;;4.50
10058;BMP180;5068;51.286;7.518;2022-12-11T09:00:03;98731.00;;;4.50
10058;BMP180;5068;51.286;7.518;2022-12-11T09:01:37;98725.00;;;4.50
10058;BMP180;5068;51.286;7.518;2022-12-11T09:03:10;98729.00;;;4.50
10058;BMP180;5068;51.286;7.518;2022-12-11T09:04:45;98741.00;;;4.50
10058;BMP180;5068;51.286;7.518;2022-12-11T09:06:21;98739.00;;;4.50
10058;BMP180;5068;51.286;7.518;2022-12-11T09:07:57;98742.00;;;4.50
10058;BMP180;5068;51.286;7.518;2022-12-11T09:09:30;98742.00;;;4.50
10058;BMP180;5068;51.286;7.518;2022-12-11T09:11:05;98750.00;;;4.50
10058;BMP180;5068;51.286;7.518;2022-12-11T09:12:39;98741.00;;;4.40
10058;BMP180;5068;51.286;7.518;2022-12-11T09:14:12;98748.00;;;4.40
10058;BMP180;5068;51.286;7.518;2022-12-11T09:15:46;98742.00;;;4.40
10058;BMP180;5068;51.286;7.518;2022-12-11T09:17:20;98748.00;;;4.40
10058;BMP180;5068;51.286;7.518;2022-12-11T09:18:55;98752.00;;;4.40
10058;BMP180;5068;51.286;7.518;2022-12-11T09:20:30;98748.00;;;4.40
10058;BMP180;5068;51.286;7.518;2022-12-11T09:22:03;98733.00;;;4.40
10058;BMP180;5068;51.286;7.518;2022-12-11T09:23:37;98741.00;;;4.50
10058;BMP180;5068;51.286;7.518;2022-12-11T09:25:10;98730.00;;;4.50